Time;durP1;ratioP1;P1;durP2;ratioP2;P2;SDS_P1;SDS_P2;PMS_P1;PMS_P2;Temp;Humidity;BMP_temperature;BMP_pressure;BME280_temperature;BME280_humidity;BME280_pressure;Samples;Min_cycle;Max_cycle;Signal;HPM_P1;HPM_P2
2024/01/16 00:02:08;;;;;;;7.40;3.30;;;-0.40;1.00;;;;;;4974247;28;20220;-72
2024/01/16 00:04:35;;;;;;;11.27;3.22;;;-0.40;1.00;;;;;;4956556;28;20629;-70
2024/01/16 00:07:01;;;;;;;4.22;2.78;;;-0.40;1.00;;;;;;4956708;28;20263;-70
2024/01/16 00:09:26;;;;;;;4.57;3.00;;;-0.40;1.00;;;;;;4973890;28;20209;-71
2024/01/16 00:11:52;;;;;;;5.83;2.97;;;-0.30;1.00;;;;;;4973953;28;20183;-70
2024/01/16 00:14:18;;;;;;;5.00;3.23;;;-0.40;1.00;;;;;;4973814;28;20700;-70
2024/01/16 00:16:47;;;;;;;6.80;3.23;;;-0.40;1.00;;;;;;4973924;28;20550;-70
2024/01/16 00:19:13;;;;;;;5.35;3.55;;;-0.40;1.00;;;;;;4956667;28;20424;-70
2024/01/16 00:21:43;;;;;;;4.90;3.97;;;-0.40;1.00;;;;;;4973964;28;20186;-71
2024/01/16 00:24:08;;;;;;;4.55;3.30;;;-0.50;1.00;;;;;;4956014;28;20456;-70
2024/01/16 00:26:34;;;;;;;4.53;2.80;;;-0.50;1.00;;;;;;4956592;28;20474;-69
2024/01/16 00:29:00;;;;;;;4.83;3.07;;;-0.50;1.00;;;;;;4955671;28;20255;-70
2024/01/16 00:31:26;;;;;;;5.90;3.33;;;-0.40;1.00;;;;;;4973709;28;20170;-70
2024/01/16 00:33:51;;;;;;;6.70;3.30;;;-0.40;1.00;;;;;;4973210;28;20196;-70
2024/01/16 00:36:17;;;;;;;5.23;3.47;;;-0.50;1.00;;;;;;4973613;28;20180;-70
2024/01/16 00:38:42;;;;;;;5.40;3.50;;;-0.50;1.00;;;;;;4973440;28;20267;-69
2024/01/16 00:41:09;;;;;;;12.57;4.67;;;-0.60;1.00;;;;;;4973521;28;20185;-69
2024/01/16 00:43:35;;;;;;;8.25;3.40;;;-0.60;1.00;;;;;;4955742;28;20201;-70
2024/01/16 00:46:01;;;;;;;5.50;4.30;;;-0.60;1.00;;;;;;4973383;28;20648;-70
2024/01/16 00:48:26;;;;;;;4.97;3.22;;;-0.60;1.00;;;;;;4955923;28;20185;-70
2024/01/16 00:50:52;;;;;;;5.93;3.77;;;-0.60;1.00;;;;;;4955886;28;20209;-70
2024/01/16 00:53:18;;;;;;;4.97;3.20;;;-0.60;1.00;;;;;;4955554;28;20309;-70
2024/01/16 00:55:43;;;;;;;6.20;3.20;;;-0.50;1.00;;;;;;4973208;28;20288;-72
2024/01/16 00:58:09;;;;;;;4.03;2.70;;;-0.60;1.00;;;;;;4973216;28;20172;-70
2024/01/16 01:00:36;;;;;;;4.93;3.00;;;-0.50;1.00;;;;;;4973139;28;20668;-70
2024/01/16 01:03:03;;;;;;;7.00;2.88;;;-0.50;1.00;;;;;;4972853;28;20204;-70
2024/01/16 01:05:29;;;;;;;3.38;2.25;;;-0.50;1.00;;;;;;4973214;28;20660;-69
2024/01/16 01:07:58;;;;;;;5.00;2.83;;;-0.50;1.00;;;;;;4972936;28;20192;-70
2024/01/16 01:10:24;;;;;;;5.80;3.47;;;-0.50;1.00;;;;;;4972896;28;20463;-69
2024/01/16 01:12:52;;;;;;;5.10;3.40;;;-0.50;1.00;;;;;;4972679;28;20248;-71
2024/01/16 01:15:18;;;;;;;5.03;3.13;;;-0.50;1.00;;;;;;4972547;28;20460;-71
2024/01/16 01:17:43;;;;;;;4.20;3.17;;;-0.50;1.00;;;;;;4972729;28;20683;-70
2024/01/16 01:20:12;;;;;;;5.23;2.83;;;-0.50;1.00;;;;;;4972866;28;20692;-70
2024/01/16 01:22:37;;;;;;;4.57;2.92;;;-0.60;1.00;;;;;;4955250;28;20771;-70
2024/01/16 01:25:03;;;;;;;7.10;3.63;;;-0.60;1.00;;;;;;4972551;28;20205;-70
2024/01/16 01:27:29;;;;;;;6.10;3.15;;;-0.60;1.00;;;;;;4972712;28;20185;-70
2024/01/16 01:29:55;;;;;;;5.10;2.97;;;-0.60;1.00;;;;;;4972724;28;20208;-70
2024/01/16 01:32:21;;;;;;;5.68;2.35;;;-0.50;1.00;;;;;;4972717;28;20511;-70
2024/01/16 01:34:47;;;;;;;5.80;3.20;;;-0.60;1.00;;;;;;4972248;28;20197;-71
2024/01/16 01:37:12;;;;;;;4.73;2.60;;;-0.60;1.00;;;;;;4972496;28;20666;-70
2024/01/16 01:39:38;;;;;;;7.37;2.93;;;-0.60;1.00;;;;;;4955303;28;20480;-69
2024/01/16 01:42:04;;;;;;;4.87;3.23;;;-0.60;1.00;;;;;;4972490;28;20181;-70
2024/01/16 01:44:29;;;;;;;3.83;2.77;;;-0.50;1.00;;;;;;4972231;28;20228;-69
2024/01/16 01:46:55;;;;;;;6.53;2.83;;;-0.50;1.00;;;;;;4972466;28;20767;-69
2024/01/16 01:49:22;;;;;;;6.30;2.90;;;-0.50;1.00;;;;;;4972461;28;20204;-69
2024/01/16 01:51:48;;;;;;;3.72;2.72;;;-0.40;1.00;;;;;;4972341;28;20177;-70
2024/01/16 01:54:15;;;;;;;4.47;2.47;;;-0.50;1.00;;;;;;4972140;28;20217;-71
2024/01/16 01:56:44;;;;;;;4.13;2.45;;;-0.50;1.00;;;;;;4972901;28;20244;-70
2024/01/16 01:59:11;;;;;;;5.15;3.05;;;-0.50;1.00;;;;;;4973013;28;20213;-70
2024/01/16 02:01:36;;;;;;;6.50;3.92;;;-0.50;1.00;;;;;;4972892;28;20209;-71
2024/01/16 02:04:03;;;;;;;5.30;2.83;;;-0.50;1.00;;;;;;4972205;28;20231;-70
2024/01/16 02:06:28;;;;;;;5.18;2.92;;;-0.50;1.00;;;;;;4972282;28;20633;-70
2024/01/16 02:08:54;;;;;;;5.37;3.37;;;-0.50;1.00;;;;;;4972190;28;20296;-69
2024/01/16 02:11:20;;;;;;;3.30;2.72;;;-0.50;1.00;;;;;;4972320;28;20252;-69
2024/01/16 02:13:46;;;;;;;5.43;2.80;;;-0.50;1.00;;;;;;4972106;28;20276;-70
2024/01/16 02:16:19;;;;;;;7.05;3.53;;;-0.40;1.00;;;;;;4972319;28;20169;-70
2024/01/16 02:18:45;;;;;;;4.75;3.05;;;-0.50;1.00;;;;;;4972150;28;20169;-70
2024/01/16 02:21:12;;;;;;;4.70;2.90;;;-0.50;1.00;;;;;;4972202;28;20239;-70
2024/01/16 02:23:38;;;;;;;5.80;3.30;;;-0.50;1.00;;;;;;4971925;28;20228;-70
2024/01/16 02:26:04;;;;;;;6.27;2.67;;;-0.50;1.00;;;;;;4954812;28;20189;-70
2024/01/16 02:28:29;;;;;;;7.28;2.53;;;-0.40;1.00;;;;;;4972065;28;20185;-70
2024/01/16 02:30:55;;;;;;;3.47;2.53;;;-0.50;1.00;;;;;;4954655;28;20213;-70
2024/01/16 02:33:21;;;;;;;4.10;2.40;;;-0.50;1.00;;;;;;4971983;28;20205;-71
2024/01/16 02:35:46;;;;;;;6.20;3.20;;;-0.50;1.00;;;;;;4971974;28;20637;-70
2024/01/16 02:38:12;;;;;;;5.60;3.00;;;-0.50;1.00;;;;;;4972092;28;20653;-69
2024/01/16 02:40:37;;;;;;;3.90;2.43;;;-0.50;1.00;;;;;;4972052;28;20674;-70
2024/01/16 02:43:03;;;;;;;4.63;2.67;;;-0.60;1.00;;;;;;4954358;28;20193;-71
2024/01/16 02:45:28;;;;;;;3.87;2.50;;;-0.70;1.00;;;;;;4970679;28;20189;-70
2024/01/16 02:47:54;;;;;;;8.20;3.90;;;-0.80;1.00;;;;;;4971929;28;20280;-70
2024/01/16 02:50:20;;;;;;;5.17;2.60;;;-0.90;1.00;;;;;;4972283;28;20205;-70
2024/01/16 02:52:45;;;;;;;4.88;3.28;;;-1.10;1.00;;;;;;4973042;28;20207;-70
2024/01/16 02:55:11;;;;;;;3.70;2.60;;;-1.20;1.00;;;;;;5012791;23;20267;-68
2024/01/16 02:57:36;;;;;;;5.17;2.60;;;-1.30;1.00;;;;;;4994323;28;20189;-68
2024/01/16 03:00:03;;;;;;;5.07;2.90;;;-1.40;1.00;;;;;;4994780;28;20259;-68
2024/01/16 03:02:29;;;;;;;4.93;3.20;;;-1.50;1.00;;;;;;4994987;28;20256;-68
2024/01/16 03:04:55;;;;;;;3.50;2.60;;;-1.60;1.00;;;;;;4994380;28;20262;-68
2024/01/16 03:07:20;;;;;;;5.23;2.27;;;-1.70;1.00;;;;;;4994883;28;20179;-69
2024/01/16 03:09:46;;;;;;;4.33;2.87;;;-1.80;1.00;;;;;;4994948;28;20218;-68
2024/01/16 03:12:12;;;;;;;6.33;3.20;;;-1.90;1.00;;;;;;4994404;28;20183;-68
2024/01/16 03:14:38;;;;;;;5.87;3.60;;;-1.90;1.00;;;;;;4994332;28;20199;-68
2024/01/16 03:17:04;;;;;;;5.57;3.67;;;-2.00;1.00;;;;;;4994520;28;20259;-68
2024/01/16 03:19:30;;;;;;;5.87;3.00;;;-2.10;1.00;;;;;;4994626;28;20659;-68
2024/01/16 03:21:55;;;;;;;5.83;3.53;;;-2.20;1.00;;;;;;4994533;28;20686;-68
2024/01/16 03:24:21;;;;;;;5.40;2.77;;;-2.20;1.00;;;;;;4976638;28;20224;-68
2024/01/16 03:26:47;;;;;;;5.23;3.30;;;-2.30;1.00;;;;;;4994186;28;20169;-69
2024/01/16 03:29:12;;;;;;;6.87;3.17;;;-2.40;1.00;;;;;;4994649;28;20456;-69
2024/01/16 03:31:38;;;;;;;5.80;3.30;;;-2.40;1.00;;;;;;4994478;28;20283;-70
2024/01/16 03:34:04;;;;;;;5.23;2.47;;;-2.40;1.00;;;;;;4993958;28;20259;-69
2024/01/16 03:36:29;;;;;;;4.07;2.90;;;-2.50;1.00;;;;;;4994328;28;20175;-70
2024/01/16 03:38:55;;;;;;;5.00;2.63;;;-2.60;1.00;;;;;;4994234;28;20262;-69
2024/01/16 03:41:20;;;;;;;6.90;2.70;;;-2.60;1.00;;;;;;4994167;28;20175;-70
2024/01/16 03:43:46;;;;;;;5.70;3.07;;;-2.60;1.00;;;;;;4993940;28;20187;-69
2024/01/16 03:46:11;;;;;;;4.43;2.30;;;-2.60;1.00;;;;;;4994051;28;20198;-69
2024/01/16 03:48:37;;;;;;;8.03;2.80;;;-2.70;1.00;;;;;;4993821;28;20171;-69
2024/01/16 03:51:03;;;;;;;4.43;2.33;;;-2.70;1.00;;;;;;4994292;28;20174;-69
2024/01/16 03:53:28;;;;;;;7.33;3.13;;;-2.80;1.00;;;;;;4993657;28;20191;-70
2024/01/16 03:55:54;;;;;;;4.30;2.10;;;-2.80;1.00;;;;;;4994046;28;20553;-68
2024/01/16 03:58:19;;;;;;;3.87;2.00;;;-2.90;1.00;;;;;;4994120;28;20191;-69
2024/01/16 04:00:47;;;;;;;4.77;3.80;;;-2.90;1.00;;;;;;4994018;28;20267;-69
2024/01/16 04:03:13;;;;;;;5.10;3.67;;;-3.00;1.00;;;;;;4993225;28;20166;-68
2024/01/16 04:05:38;;;;;;;4.33;2.07;;;-3.00;1.00;;;;;;4993429;28;20200;-69
2024/01/16 04:08:04;;;;;;;2.83;2.13;;;-3.10;1.00;;;;;;4993889;28;20666;-69
2024/01/16 04:10:30;;;;;;;4.50;2.87;;;-3.20;1.00;;;;;;4993667;28;20630;-69
2024/01/16 04:12:55;;;;;;;4.10;2.60;;;-3.20;1.00;;;;;;4993518;28;20175;-68
2024/01/16 04:15:22;;;;;;;3.50;2.40;;;-3.30;1.00;;;;;;4975981;28;20193;-68
2024/01/16 04:17:48;;;;;;;5.43;3.15;;;-3.40;1.00;;;;;;4993680;28;20544;-68
2024/01/16 04:20:13;;;;;;;3.80;2.50;;;-3.30;1.00;;;;;;4975898;28;20327;-69
2024/01/16 04:22:39;;;;;;;5.90;3.30;;;-3.40;1.00;;;;;;4972360;28;20185;-68
2024/01/16 04:25:05;;;;;;;5.30;2.70;;;-3.40;1.00;;;;;;4966166;28;20289;-68
2024/01/16 04:27:32;;;;;;;8.80;3.00;;;-3.40;1.00;;;;;;4972564;28;20194;-68
2024/01/16 04:29:57;;;;;;;5.65;2.70;;;-3.40;1.00;;;;;;4962863;28;20494;-69
2024/01/16 04:32:23;;;;;;;5.10;3.17;;;-3.50;1.00;;;;;;4958115;28;20210;-69
2024/01/16 04:34:48;;;;;;;6.17;4.27;;;-3.50;1.00;;;;;;4954070;29;20204;-69
2024/01/16 04:37:14;;;;;;;4.70;2.70;;;-3.60;1.00;;;;;;4954336;29;20176;-68
2024/01/16 04:39:39;;;;;;;5.77;3.30;;;-3.60;1.00;;;;;;4954487;29;20213;-68
2024/01/16 04:42:05;;;;;;;6.60;2.90;;;-3.70;1.00;;;;;;4954508;29;20182;-67
2024/01/16 04:44:30;;;;;;;4.80;3.03;;;-3.70;1.00;;;;;;4954219;29;20198;-70
2024/01/16 04:46:56;;;;;;;6.17;2.63;;;-3.80;1.00;;;;;;4954501;29;20183;-68
2024/01/16 04:49:21;;;;;;;4.10;3.53;;;-3.80;1.00;;;;;;4937192;29;20206;-69
2024/01/16 04:51:47;;;;;;;4.40;3.10;;;-3.80;1.00;;;;;;4954573;29;20209;-68
2024/01/16 04:54:12;;;;;;;4.80;2.67;;;-3.80;1.00;;;;;;4954058;29;20209;-68
2024/01/16 04:56:38;;;;;;;3.87;2.37;;;-3.80;1.00;;;;;;4954129;29;20178;-68
2024/01/16 04:59:04;;;;;;;5.53;3.03;;;-3.90;1.00;;;;;;4937288;29;20258;-68
2024/01/16 05:01:29;;;;;;;5.40;3.03;;;-3.90;1.00;;;;;;4953881;29;20186;-69
2024/01/16 05:03:55;;;;;;;4.43;2.43;;;-3.90;1.00;;;;;;4936747;29;20211;-69
2024/01/16 05:06:21;;;;;;;5.60;3.07;;;-4.00;1.00;;;;;;4954137;29;20178;-69
2024/01/16 05:08:47;;;;;;;5.70;3.22;;;-4.00;1.00;;;;;;4953976;29;20174;-69
2024/01/16 05:11:12;;;;;;;3.63;2.13;;;-4.10;1.00;;;;;;4954050;29;20178;-69
2024/01/16 05:13:38;;;;;;;6.20;3.97;;;-4.10;1.00;;;;;;4953659;29;20194;-69
2024/01/16 05:16:03;;;;;;;4.80;2.97;;;-4.10;1.00;;;;;;4953482;28;20245;-69
2024/01/16 05:18:29;;;;;;;6.60;3.90;;;-4.20;1.40;;;;;;4953839;29;20233;-69
2024/01/16 05:20:56;;;;;;;8.57;3.50;;;-4.20;1.30;;;;;;4953894;29;20426;-69
2024/01/16 05:23:22;;;;;;;6.00;3.38;;;-4.30;1.30;;;;;;4953566;29;20174;-69
2024/01/16 05:25:47;;;;;;;6.37;3.40;;;-4.30;1.30;;;;;;4953683;29;20685;-69
2024/01/16 05:28:13;;;;;;;10.30;4.13;;;-4.40;1.80;;;;;;4953728;29;20449;-69
2024/01/16 05:30:38;;;;;;;6.00;3.50;;;-4.40;2.20;;;;;;4953513;29;20697;-69
2024/01/16 05:33:04;;;;;;;7.43;4.13;;;-4.30;2.70;;;;;;4953580;29;20186;-69
2024/01/16 05:35:29;;;;;;;6.53;3.87;;;-4.30;3.10;;;;;;4953494;29;20194;-69
2024/01/16 05:37:56;;;;;;;5.40;2.70;;;-4.30;3.10;;;;;;4953579;29;20177;-69
2024/01/16 05:40:22;;;;;;;12.13;3.47;;;-4.20;2.90;;;;;;4952338;29;20277;-69
2024/01/16 05:42:51;;;;;;;6.40;3.93;;;-4.20;2.40;;;;;;4953558;29;20224;-69
2024/01/16 05:45:17;;;;;;;5.20;3.10;;;-4.10;2.00;;;;;;4954063;29;20588;-69
2024/01/16 05:47:42;;;;;;;5.25;4.03;;;-4.20;1.90;;;;;;4953782;29;20269;-69
2024/01/16 05:50:08;;;;;;;6.10;4.00;;;-4.20;2.20;;;;;;4953435;29;20349;-69
2024/01/16 05:52:34;;;;;;;7.80;3.70;;;-4.20;2.10;;;;;;4953956;29;20211;-69
2024/01/16 05:55:00;;;;;;;3.80;3.00;;;-4.20;2.10;;;;;;4953736;29;20293;-69
2024/01/16 05:57:26;;;;;;;8.20;3.67;;;-4.30;2.20;;;;;;4953823;29;20259;-69
2024/01/16 05:59:52;;;;;;;7.03;3.85;;;-4.30;2.60;;;;;;4953950;29;20504;-69
2024/01/16 06:02:18;;;;;;;5.97;4.17;;;-4.20;2.20;;;;;;4953721;29;20321;-69
2024/01/16 06:04:43;;;;;;;6.90;4.10;;;-4.20;2.60;;;;;;4953522;29;20860;-69
2024/01/16 06:07:09;;;;;;;10.20;4.93;;;-4.10;2.20;;;;;;4936278;29;20561;-69
2024/01/16 06:09:40;;;;;;;8.07;5.60;;;-4.10;1.90;;;;;;4953616;29;20269;-70
2024/01/16 06:12:07;;;;;;;8.13;4.10;;;-4.10;1.90;;;;;;4953843;29;20178;-69
2024/01/16 06:14:33;;;;;;;6.05;4.25;;;-4.10;2.30;;;;;;4953212;29;20280;-69
2024/01/16 06:16:58;;;;;;;7.27;4.10;;;-4.10;1.40;;;;;;4936297;29;20206;-69
2024/01/16 06:19:24;;;;;;;8.07;4.57;;;-4.00;1.50;;;;;;4953376;29;20501;-69
2024/01/16 06:21:49;;;;;;;6.30;4.80;;;-4.00;1.50;;;;;;4953826;29;20721;-69
2024/01/16 06:24:15;;;;;;;13.03;4.70;;;-4.00;1.00;;;;;;4935811;29;20198;-68
2024/01/16 06:26:42;;;;;;;8.13;4.00;;;-4.00;1.00;;;;;;4953710;28;20204;-68
2024/01/16 06:29:07;;;;;;;8.40;4.93;;;-3.90;1.00;;;;;;4956991;29;20260;-68
2024/01/16 06:31:33;;;;;;;8.90;4.60;;;-3.90;1.00;;;;;;4957251;29;20646;-69
2024/01/16 06:33:58;;;;;;;8.40;4.40;;;-4.00;1.00;;;;;;4956633;29;20198;-68
2024/01/16 06:36:24;;;;;;;4.87;3.87;;;-4.00;1.00;;;;;;4957072;29;20186;-69
2024/01/16 06:38:49;;;;;;;4.20;3.73;;;-4.00;1.00;;;;;;4957378;29;20230;-68
2024/01/16 06:41:15;;;;;;;5.90;4.23;;;-4.00;1.00;;;;;;4939688;29;20302;-69
2024/01/16 06:43:41;;;;;;;7.87;4.87;;;-4.00;1.00;;;;;;4956486;29;20671;-68
2024/01/16 06:46:06;;;;;;;6.80;4.60;;;-4.00;1.00;;;;;;4957111;29;20225;-69
2024/01/16 06:48:32;;;;;;;4.87;3.50;;;-4.00;1.00;;;;;;4956655;29;20653;-68
2024/01/16 06:50:57;;;;;;;9.83;5.80;;;-4.00;1.00;;;;;;4956796;29;20352;-68
2024/01/16 06:53:23;;;;;;;7.37;5.43;;;-4.10;1.00;;;;;;4956345;29;20252;-68
2024/01/16 06:55:49;;;;;;;5.90;4.30;;;-4.10;1.00;;;;;;4956742;29;20504;-68
2024/01/16 06:58:14;;;;;;;9.07;6.00;;;-4.10;1.00;;;;;;4956587;29;20579;-68
2024/01/16 07:00:41;;;;;;;6.30;4.50;;;-4.00;1.00;;;;;;4956810;29;20193;-68
2024/01/16 07:03:07;;;;;;;5.20;4.30;;;-4.00;1.00;;;;;;4956281;29;20178;-69
2024/01/16 07:05:32;;;;;;;7.40;4.53;;;-4.00;1.00;;;;;;4956265;29;20562;-68
2024/01/16 07:07:58;;;;;;;7.00;4.23;;;-4.00;1.00;;;;;;4956869;29;20626;-68
2024/01/16 07:10:24;;;;;;;4.90;3.70;;;-3.90;1.00;;;;;;4956219;29;20211;-68
2024/01/16 07:12:51;;;;;;;9.10;5.50;;;-3.90;1.00;;;;;;4956087;29;20193;-68
2024/01/16 07:15:18;;;;;;;7.50;4.18;;;-3.90;1.00;;;;;;4956264;29;20194;-69
2024/01/16 07:17:43;;;;;;;4.85;4.00;;;-3.90;1.00;;;;;;4955212;29;20550;-67
2024/01/16 07:20:09;;;;;;;6.67;4.07;;;-3.90;1.00;;;;;;4956590;29;20190;-69
2024/01/16 07:22:37;;;;;;;6.78;4.25;;;-3.90;1.00;;;;;;4956575;29;20551;-68
2024/01/16 07:25:04;;;;;;;6.20;4.40;;;-4.00;1.00;;;;;;4972878;29;20310;-68
2024/01/16 07:27:29;;;;;;;8.07;5.07;;;-4.00;1.00;;;;;;4970336;29;20183;-69
2024/01/16 07:29:56;;;;;;;7.07;4.70;;;-4.10;1.00;;;;;;4957355;29;20234;-68
2024/01/16 07:32:22;;;;;;;6.28;4.45;;;-4.10;1.00;;;;;;4970446;29;20186;-68
2024/01/16 07:34:47;;;;;;;8.53;4.10;;;-4.00;1.00;;;;;;4939105;29;20208;-68
2024/01/16 07:37:13;;;;;;;10.67;4.70;;;-4.00;1.00;;;;;;4956216;29;20244;-70
2024/01/16 07:39:39;;;;;;;10.93;6.15;;;-4.00;1.00;;;;;;4938443;29;20297;-68
2024/01/16 07:42:05;;;;;;;6.43;4.87;;;-3.90;1.00;;;;;;4956517;29;20221;-69
2024/01/16 07:44:30;;;;;;;11.07;6.50;;;-3.90;1.00;;;;;;4973689;28;20204;-71
2024/01/16 07:46:56;;;;;;;8.13;4.93;;;-3.80;1.00;;;;;;4977691;28;20189;-68
2024/01/16 07:49:23;;;;;;;7.13;4.33;;;-3.80;1.00;;;;;;4976790;28;20717;-68
2024/01/16 07:51:49;;;;;;;9.95;5.68;;;-3.80;1.00;;;;;;4971374;28;20194;-68
2024/01/16 07:54:14;;;;;;;7.63;5.17;;;-3.70;1.00;;;;;;4955904;28;20705;-68
2024/01/16 07:56:40;;;;;;;7.07;5.50;;;-3.60;1.00;;;;;;4957333;28;20174;-68
2024/01/16 07:59:06;;;;;;;9.30;5.60;;;-3.50;1.00;;;;;;4974539;28;20181;-68
2024/01/16 08:01:32;;;;;;;13.63;6.72;;;-3.40;1.00;;;;;;4974710;28;20212;-69
2024/01/16 08:03:58;;;;;;;9.97;6.57;;;-3.30;1.00;;;;;;4974680;28;20617;-69
2024/01/16 08:06:23;;;;;;;9.10;5.97;;;-3.20;1.00;;;;;;4974831;28;20180;-68
2024/01/16 08:08:49;;;;;;;9.70;6.13;;;-3.10;1.00;;;;;;4974890;28;20184;-70
2024/01/16 08:11:16;;;;;;;7.00;4.30;;;-2.90;1.00;;;;;;4974278;28;20172;-69
2024/01/16 08:13:41;;;;;;;7.20;5.15;;;-2.90;1.00;;;;;;4974150;28;20192;-70
2024/01/16 08:16:07;;;;;;;6.57;5.07;;;-2.80;1.00;;;;;;4974679;28;20186;-68
2024/01/16 08:18:34;;;;;;;6.80;4.13;;;-2.70;1.00;;;;;;4972725;28;20218;-68
2024/01/16 08:21:00;;;;;;;5.15;4.13;;;-2.50;1.00;;;;;;4974210;28;20430;-70
2024/01/16 08:23:25;;;;;;;10.60;4.63;;;-2.40;1.00;;;;;;4973583;28;20259;-69
2024/01/16 08:25:51;;;;;;;7.97;5.10;;;-2.20;1.00;;;;;;4956759;28;20428;-69
2024/01/16 08:28:17;;;;;;;8.13;4.65;;;-2.20;1.00;;;;;;4974103;28;20181;-68
2024/01/16 08:30:43;;;;;;;7.93;4.90;;;-2.20;1.00;;;;;;4956895;28;20223;-69
2024/01/16 08:33:09;;;;;;;7.90;6.07;;;-2.30;1.00;;;;;;4974248;28;20183;-69
2024/01/16 08:35:34;;;;;;;8.80;4.97;;;-2.20;1.00;;;;;;4973973;28;20207;-67
2024/01/16 08:38:01;;;;;;;8.40;5.17;;;-2.10;1.00;;;;;;4973889;28;20180;-69
2024/01/16 08:40:26;;;;;;;8.07;4.70;;;-2.00;1.00;;;;;;4973732;28;20180;-70
2024/01/16 08:42:54;;;;;;;8.20;5.17;;;-1.90;1.00;;;;;;4973947;28;20544;-69
2024/01/16 08:45:21;;;;;;;7.50;4.75;;;-1.80;1.00;;;;;;4974352;28;20250;-69
2024/01/16 08:47:46;;;;;;;8.73;4.78;;;-1.60;1.00;;;;;;4974197;28;20189;-70
2024/01/16 08:50:12;;;;;;;6.10;4.30;;;-1.60;1.00;;;;;;4973272;28;20570;-70
2024/01/16 08:52:37;;;;;;;6.90;4.17;;;-1.50;1.00;;;;;;4974220;28;20171;-68
2024/01/16 08:55:03;;;;;;;7.87;4.40;;;-1.50;1.00;;;;;;4973065;28;20266;-68
2024/01/16 08:57:29;;;;;;;6.75;4.22;;;-1.30;1.00;;;;;;4974254;28;20188;-69
2024/01/16 08:59:55;;;;;;;13.90;5.80;;;-1.30;1.00;;;;;;4974369;28;20672;-69
2024/01/16 09:02:21;;;;;;;13.10;5.23;;;-1.30;1.00;;;;;;4974457;28;20180;-69
2024/01/16 09:04:47;;;;;;;6.72;3.90;;;-1.40;1.00;;;;;;4973881;28;20200;-68
2024/01/16 09:07:15;;;;;;;5.15;4.25;;;-1.40;1.00;;;;;;4973888;28;20177;-68
2024/01/16 09:09:42;;;;;;;14.05;5.35;;;-1.00;1.00;;;;;;4973980;28;20236;-68
2024/01/16 09:12:10;;;;;;;6.22;4.40;;;-0.90;1.00;;;;;;4974613;28;20177;-69
2024/01/16 09:14:36;;;;;;;6.78;4.07;;;-0.60;1.00;;;;;;4975490;28;20272;-68
2024/01/16 09:17:02;;;;;;;9.60;5.30;;;-0.30;1.00;;;;;;4975732;28;20641;-70
2024/01/16 09:19:29;;;;;;;9.18;6.03;;;-0.30;1.00;;;;;;4974223;28;20174;-69
2024/01/16 09:21:55;;;;;;;10.27;5.22;;;0.00;1.00;;;;;;4956458;28;20264;-68
2024/01/16 09:24:20;;;;;;;11.23;5.30;;;0.20;1.00;;;;;;4973778;28;20209;-69
2024/01/16 09:26:46;;;;;;;8.13;5.33;;;0.50;1.00;;;;;;4973968;28;20432;-69
2024/01/16 09:29:14;;;;;;;9.60;4.93;;;0.70;1.00;;;;;;4973782;28;20653;-70
2024/01/16 09:31:40;;;;;;;7.47;5.63;;;0.80;1.00;;;;;;4973387;28;20598;-69
2024/01/16 09:34:05;;;;;;;9.55;6.13;;;0.80;1.00;;;;;;4973219;28;20195;-69
2024/01/16 09:36:31;;;;;;;10.03;4.67;;;0.80;1.00;;;;;;4973938;28;20579;-69
2024/01/16 09:38:56;;;;;;;8.83;6.27;;;0.80;1.00;;;;;;4973368;28;20244;-68
2024/01/16 09:41:23;;;;;;;9.17;6.77;;;1.00;1.00;;;;;;4973463;28;20182;-70
2024/01/16 09:43:51;;;;;;;7.60;5.25;;;0.90;1.00;;;;;;4972921;28;20190;-68
2024/01/16 09:46:19;;;;;;;11.40;6.57;;;1.10;1.00;;;;;;4973299;28;20173;-69
2024/01/16 09:48:46;;;;;;;6.80;4.93;;;1.20;1.00;;;;;;4973324;28;20260;-68
2024/01/16 09:51:17;;;;;;;8.55;5.15;;;1.30;1.00;;;;;;4971783;28;20205;-69
2024/01/16 09:53:42;;;;;;;7.13;5.28;;;1.10;1.00;;;;;;4972943;28;20207;-69
2024/01/16 09:56:15;;;;;;;9.70;5.80;;;1.00;1.00;;;;;;4955959;28;20588;-69
2024/01/16 09:58:41;;;;;;;7.35;4.82;;;1.00;1.00;;;;;;4973206;28;20224;-69
2024/01/16 10:01:07;;;;;;;10.30;6.13;;;0.90;1.00;;;;;;4973839;28;20178;-69
2024/01/16 10:03:34;;;;;;;12.27;6.90;;;0.80;1.00;;;;;;4976899;28;20213;-69
2024/01/16 10:06:05;;;;;;;8.25;5.20;;;0.80;1.00;;;;;;4959548;28;20185;-69
2024/01/16 10:08:31;;;;;;;8.93;4.88;;;0.70;1.00;;;;;;4977111;28;20656;-69
2024/01/16 10:10:58;;;;;;;7.47;5.77;;;0.70;1.00;;;;;;4977051;28;20212;-69
2024/01/16 10:13:24;;;;;;;5.95;4.60;;;0.60;1.00;;;;;;4976725;28;20421;-69
2024/01/16 10:15:52;;;;;;;8.23;5.40;;;0.40;1.00;;;;;;4977203;28;20606;-68
2024/01/16 10:18:25;;;;;;;22.20;5.18;;;0.30;1.00;;;;;;4976754;28;20188;-68
2024/01/16 10:20:53;;;;;;;8.35;5.00;;;0.20;1.00;;;;;;4976992;28;20226;-69
2024/01/16 10:23:32;;;;;;;9.93;5.38;;;0.00;1.00;;;;;;4976415;28;20174;-69
2024/01/16 10:26:11;;;;;;;5.78;5.05;;;0.00;1.00;;;;;;4959715;28;20683;-69
2024/01/16 10:28:39;;;;;;;7.13;5.50;;;-0.10;1.00;;;;;;4976796;28;20227;-69
2024/01/16 10:31:06;;;;;;;8.30;6.00;;;-0.10;1.00;;;;;;4976773;28;20259;-69
2024/01/16 10:33:32;;;;;;;7.82;4.93;;;-0.10;1.00;;;;;;4976358;28;20272;-69
2024/01/16 10:36:10;;;;;;;6.63;5.27;;;0.00;1.00;;;;;;4975394;28;20205;-69
2024/01/16 10:38:38;;;;;;;8.02;5.90;;;0.20;1.00;;;;;;4976555;28;20413;-69
2024/01/16 10:41:14;;;;;;;9.60;5.15;;;0.20;1.00;;;;;;4976932;28;20577;-69
2024/01/16 10:43:41;;;;;;;10.52;5.90;;;0.10;1.00;;;;;;4976309;28;20196;-69
2024/01/16 10:46:08;;;;;;;11.35;6.22;;;0.10;1.00;;;;;;4959013;28;20178;-69
2024/01/16 10:48:34;;;;;;;11.02;5.45;;;0.10;1.00;;;;;;4976404;28;20200;-69
2024/01/16 10:51:02;;;;;;;10.00;5.88;;;0.20;1.00;;;;;;4976704;28;20235;-68
2024/01/16 10:53:32;;;;;;;16.95;5.97;;;0.30;1.00;;;;;;4976049;28;20177;-69
2024/01/16 10:56:00;;;;;;;7.30;5.45;;;0.40;1.00;;;;;;4976450;28;20169;-69
2024/01/16 10:58:25;;;;;;;16.90;5.50;;;0.40;1.00;;;;;;4958790;28;20181;-69
2024/01/16 11:00:56;;;;;;;10.30;5.07;;;0.40;1.00;;;;;;4976129;28;20193;-69
2024/01/16 11:03:34;;;;;;;7.20;5.32;;;0.50;1.00;;;;;;4974591;28;20185;-69
2024/01/16 11:06:01;;;;;;;15.80;7.63;;;0.50;1.00;;;;;;4974791;28;20177;-68
2024/01/16 11:08:30;;;;;;;11.48;5.90;;;0.60;1.00;;;;;;4975734;28;20177;-69
2024/01/16 11:10:58;;;;;;;7.57;6.07;;;0.80;1.00;;;;;;4976077;28;20210;-69
2024/01/16 11:13:25;;;;;;;10.13;6.05;;;0.90;1.00;;;;;;4974753;28;20176;-68
2024/01/16 11:15:51;;;;;;;9.13;7.13;;;1.00;1.00;;;;;;4975823;28;20252;-69
2024/01/16 11:18:19;;;;;;;8.90;5.78;;;1.10;1.00;;;;;;4975830;28;20174;-69
2024/01/16 11:20:45;;;;;;;8.18;5.70;;;1.30;1.00;;;;;;4975649;28;20640;-68
2024/01/16 11:23:12;;;;;;;7.20;6.10;;;1.40;1.00;;;;;;4975416;28;20181;-69
2024/01/16 11:25:37;;;;;;;11.32;5.80;;;1.50;1.00;;;;;;4975868;28;20454;-70
2024/01/16 11:28:14;;;;;;;7.10;5.30;;;1.60;1.00;;;;;;4975750;28;20216;-69
2024/01/16 11:30:40;;;;;;;8.20;5.53;;;1.70;1.00;;;;;;4975750;28;20217;-70
2024/01/16 11:33:06;;;;;;;7.88;6.03;;;1.80;1.00;;;;;;4975864;28;20525;-70
2024/01/16 11:35:42;;;;;;;9.43;6.03;;;1.90;1.00;;;;;;4975312;28;20266;-69
2024/01/16 11:38:16;;;;;;;5.85;4.65;;;2.00;1.00;;;;;;4975368;28;20417;-69
2024/01/16 11:40:43;;;;;;;8.38;5.30;;;2.00;1.00;;;;;;4975498;28;20238;-69
2024/01/16 11:43:31;;;;;;;10.70;4.55;;;2.00;1.00;;;;;;4975214;28;20593;-69
2024/01/16 11:45:58;;;;;;;7.22;4.40;;;2.00;1.00;;;;;;4967787;28;20205;-69
2024/01/16 11:48:24;;;;;;;9.88;5.78;;;1.80;1.00;;;;;;4975725;28;20603;-68
2024/01/16 11:50:49;;;;;;;8.37;4.73;;;1.80;1.00;;;;;;4974440;28;20218;-69
2024/01/16 11:53:32;;;;;;;6.43;4.30;;;1.80;1.00;;;;;;4975531;28;20178;-71
2024/01/16 11:56:23;;;;;;;6.50;4.18;;;1.90;1.00;;;;;;4976060;28;20176;-70
2024/01/16 11:59:05;;;;;;;8.23;3.78;;;2.00;1.00;;;;;;4975368;28;20187;-68
2024/01/16 12:01:32;;;;;;;5.90;5.05;;;2.10;1.00;;;;;;4979309;28;20524;-69
2024/01/16 12:04:05;;;;;;;14.75;4.20;;;2.20;1.00;;;;;;4974921;28;20203;-68
2024/01/16 12:06:31;;;;;;;5.40;3.95;;;2.30;1.00;;;;;;4975182;28;20184;-68
2024/01/16 12:09:18;;;;;;;5.45;3.88;;;2.40;1.00;;;;;;4974754;28;20174;-69
2024/01/16 12:11:55;;;;;;;6.13;4.55;;;2.50;1.00;;;;;;4974816;28;20564;-67
2024/01/16 12:14:20;;;;;;;6.32;4.10;;;2.70;1.00;;;;;;4957591;28;20751;-68
2024/01/16 12:16:46;;;;;;;5.40;3.90;;;2.80;1.00;;;;;;4974740;28;20178;-68
2024/01/16 12:19:13;;;;;;;6.20;5.30;;;2.80;1.00;;;;;;4973164;28;20187;-68
2024/01/16 12:21:41;;;;;;;6.22;4.57;;;2.80;1.00;;;;;;4974647;28;20218;-69
2024/01/16 12:24:07;;;;;;;6.75;4.30;;;2.80;1.00;;;;;;4956841;28;20210;-70
2024/01/16 12:26:32;;;;;;;8.73;4.90;;;2.80;1.00;;;;;;4956491;28;20271;-70
2024/01/16 12:28:58;;;;;;;5.07;4.00;;;2.70;1.00;;;;;;4974500;28;20227;-68
2024/01/16 12:31:25;;;;;;;8.30;4.50;;;2.90;1.00;;;;;;4974463;28;20512;-67
2024/01/16 12:33:51;;;;;;;13.90;4.85;;;2.90;1.00;;;;;;4973767;28;20432;-69
2024/01/16 12:36:17;;;;;;;8.18;4.60;;;2.80;1.00;;;;;;4972907;28;20204;-70
2024/01/16 12:38:43;;;;;;;7.73;4.20;;;2.80;1.00;;;;;;4973960;28;20172;-68
2024/01/16 12:41:11;;;;;;;8.80;4.50;;;2.70;1.00;;;;;;4974099;28;20210;-68
2024/01/16 12:43:37;;;;;;;5.80;5.20;;;2.80;1.00;;;;;;4972537;28;20200;-69
2024/01/16 12:46:11;;;;;;;4.40;3.88;;;2.80;1.00;;;;;;5009542;28;20538;-70
2024/01/16 12:48:38;;;;;;;9.23;4.90;;;2.80;1.00;;;;;;5009674;28;20541;-70
2024/01/16 12:51:04;;;;;;;5.22;4.22;;;2.80;1.00;;;;;;5009533;28;20174;-70
2024/01/16 12:53:31;;;;;;;9.10;4.32;;;2.70;1.00;;;;;;5009582;28;20528;-69
2024/01/16 12:56:03;;;;;;;8.02;4.90;;;2.70;1.00;;;;;;5009688;28;20247;-71